createdAt,value
2019-04-28T11:24:14.900Z,4044
2019-04-28T11:25:15.614Z,4044
2019-04-28T11:26:16.387Z,4044
2019-04-28T11:27:17.115Z,4044
2019-04-28T11:28:17.857Z,4044
2019-04-28T11:29:18.601Z,4044
2019-04-28T11:30:19.382Z,4044
2019-04-28T11:31:20.190Z,4044
2019-04-28T11:32:20.949Z,4044
2019-04-28T11:33:21.697Z,4044
2019-04-28T11:34:22.475Z,4044
2019-04-28T11:35:23.198Z,4044
2019-04-28T11:36:24.032Z,4064
2019-04-28T11:37:24.788Z,4064
2019-04-28T11:38:25.501Z,4064
2019-04-28T11:39:26.278Z,4064
2019-04-28T11:40:27.028Z,4064
2019-04-28T11:41:27.811Z,4064
2019-04-28T11:42:28.584Z,4064
2019-04-28T11:43:29.295Z,4064
2019-04-28T11:44:30.041Z,4064
2019-04-28T11:45:30.781Z,4064
2019-04-28T11:46:31.553Z,4064
2019-04-28T11:47:32.297Z,4064
2019-04-28T11:48:32.993Z,4064
2019-04-28T11:49:33.715Z,4064
2019-04-28T11:50:34.417Z,4084
2019-04-28T11:51:35.189Z,4084
2019-04-28T11:52:35.900Z,4084
2019-04-28T11:53:36.646Z,4084
2019-04-28T11:54:37.337Z,4084
2019-04-28T11:55:38.080Z,4084
2019-04-28T11:56:41.363Z,4084
2019-04-28T11:57:42.605Z,4084
2019-04-28T11:58:43.345Z,4084
2019-04-28T11:59:44.112Z,4084
2019-04-28T12:00:44.824Z,4084
2019-04-28T12:01:45.641Z,4084
2019-04-28T12:02:46.400Z,4084
2019-04-28T12:03:47.123Z,4104
2019-04-28T12:04:47.904Z,4104
2019-04-28T12:05:48.648Z,4104
2019-04-28T12:06:49.449Z,4104
2019-04-28T12:07:50.211Z,4104
2019-04-28T12:08:50.972Z,4104
2019-04-28T12:10:03.706Z,4104
2019-04-28T12:11:07.127Z,4104
2019-04-28T12:12:08.665Z,4104
2019-04-28T12:13:09.524Z,4104
2019-04-28T12:14:10.269Z,4104
2019-04-28T12:15:11.003Z,4104
2019-04-28T12:16:11.720Z,4124
2019-04-28T12:17:14.482Z,4124
2019-04-28T12:18:15.418Z,4124
2019-04-28T12:19:16.169Z,4124
2019-04-28T12:20:16.942Z,4124
2019-04-28T12:21:17.714Z,4124
2019-04-28T12:22:18.508Z,4124
2019-04-28T12:23:19.235Z,4124
2019-04-28T12:24:20.013Z,4124
2019-04-28T12:25:20.796Z,4144
2019-04-28T12:26:21.559Z,4144
2019-04-28T12:27:22.435Z,4144
2019-04-28T12:28:23.148Z,4144
2019-04-28T12:29:23.887Z,4144
2019-04-28T12:30:24.674Z,4144
2019-04-28T12:31:25.430Z,4144
2019-04-28T12:32:26.208Z,4144
2019-04-28T12:33:26.958Z,4144
2019-04-28T12:34:27.682Z,4144
2019-04-28T12:35:28.439Z,4164
2019-04-28T12:36:29.213Z,4144
2019-04-28T12:37:30.003Z,4164
2019-04-28T12:38:30.740Z,4164
2019-04-28T12:39:31.471Z,4164
2019-04-28T12:40:32.264Z,4164
2019-04-28T12:41:33.019Z,4164
2019-04-28T12:42:33.850Z,4164
2019-04-28T12:43:34.608Z,4164
2019-04-28T12:44:35.354Z,4164
2019-04-28T12:45:36.124Z,4164
2019-04-28T12:46:36.863Z,4164
2019-04-28T12:47:37.651Z,4164
2019-04-28T12:48:38.344Z,4184
2019-04-28T12:49:39.048Z,4184
2019-04-28T12:50:39.834Z,4184
2019-04-28T12:51:40.556Z,4184
2019-04-28T12:52:41.373Z,4184
2019-04-28T12:53:42.122Z,4184
2019-04-28T12:54:44.602Z,4184
2019-04-28T12:55:45.523Z,4184
2019-04-28T12:56:46.246Z,4184
2019-04-28T12:57:47.077Z,4184
2019-04-28T12:58:47.847Z,4184
2019-04-28T12:59:48.609Z,4184
2019-04-28T13:00:49.388Z,4184
2019-04-28T13:01:50.123Z,4184
2019-04-28T13:02:50.897Z,4184
2019-04-28T13:03:51.675Z,4184
2019-04-28T13:04:52.471Z,4184
2019-04-28T13:06:01.425Z,4204
2019-04-28T13:07:06.679Z,4204
2019-04-28T13:08:07.442Z,4204
2019-04-28T13:09:08.245Z,4204
2019-04-28T13:10:09.077Z,4204
2019-04-28T13:11:09.860Z,4204
2019-04-28T13:12:10.611Z,4204
2019-04-28T13:13:11.359Z,4204
2019-04-28T13:14:12.206Z,4204
2019-04-28T13:15:12.982Z,4204
2019-04-28T13:16:13.778Z,4204
2019-04-28T13:17:14.628Z,4204
2019-04-28T13:18:15.376Z,4204
2019-04-28T13:19:16.172Z,4204
2019-04-28T13:20:16.914Z,4204
2019-04-28T13:21:17.693Z,4204
2019-04-28T13:22:18.469Z,4204
2019-04-28T13:23:19.204Z,4204
2019-04-28T13:24:20.028Z,4204
2019-04-28T13:25:20.767Z,4204
2019-04-28T13:26:21.496Z,4204
2019-04-28T13:27:22.301Z,4204
2019-04-28T13:28:23.068Z,4204
2019-04-28T13:29:23.871Z,4204
2019-04-28T13:30:24.635Z,4204
2019-04-28T13:31:25.415Z,4204
2019-04-28T13:32:26.244Z,4204
2019-04-28T13:33:26.988Z,4204
2019-04-28T13:34:27.939Z,4204
2019-04-28T13:35:28.725Z,4204
2019-04-28T13:36:29.531Z,4204
2019-04-28T13:37:30.344Z,4204
2019-04-28T13:38:31.116Z,4204
2019-04-28T13:39:31.893Z,4204
2019-04-28T13:40:32.753Z,4204
2019-04-28T13:41:33.519Z,4204
2019-04-28T13:42:34.362Z,4204
2019-04-28T13:43:35.119Z,4204
2019-04-28T13:44:35.982Z,4204
2019-04-28T13:45:36.755Z,4204
2019-04-28T13:46:37.550Z,4204
2019-04-28T13:47:38.328Z,4204
2019-04-28T13:48:39.076Z,4204
2019-04-28T13:49:39.844Z,4204
2019-04-28T13:50:40.651Z,4204
2019-04-28T13:51:41.437Z,4204
2019-04-28T13:52:42.309Z,4204
2019-04-28T13:53:43.106Z,4204
2019-04-28T13:54:44.009Z,4204
2019-04-28T13:55:44.796Z,4204
2019-04-28T13:56:45.532Z,4204
2019-04-28T13:57:46.425Z,4204
2019-04-28T13:58:47.152Z,4204
2019-04-28T13:59:47.988Z,4204
2019-04-28T14:00:48.783Z,4204
2019-04-28T14:01:49.537Z,4204
2019-04-28T14:02:50.331Z,4204
2019-04-28T14:03:51.094Z,4204
2019-04-28T14:04:51.872Z,4204
2019-04-28T14:05:52.613Z,4204
2019-04-28T14:06:53.434Z,4204
2019-04-28T14:07:54.317Z,4204
2019-04-28T14:08:55.118Z,4204
2019-04-28T14:09:55.980Z,4204
2019-04-28T14:10:56.763Z,4204
2019-04-28T14:11:57.554Z,4204
2019-04-28T14:12:58.345Z,4204
2019-04-28T14:13:59.172Z,4204
2019-04-28T14:14:59.979Z,4204
2019-04-28T14:16:00.781Z,4204
2019-04-28T14:17:01.767Z,4204
2019-04-28T14:18:02.632Z,4204
2019-04-28T14:19:03.403Z,4204
2019-04-28T14:20:04.255Z,4204
2019-04-28T14:21:07.750Z,4204
2019-04-28T14:22:08.790Z,4204
2019-04-28T14:23:09.619Z,4204
2019-04-28T14:24:10.371Z,4204
2019-04-28T14:25:11.227Z,4204
2019-04-28T14:26:12.056Z,4204
2019-04-28T14:27:12.881Z,4204
2019-04-28T14:28:13.746Z,4204
2019-04-28T14:29:14.604Z,4204
2019-04-28T14:30:15.353Z,4204
2019-04-28T14:31:16.095Z,4204
2019-04-28T14:32:16.827Z,4204
2019-04-28T14:33:17.691Z,4204
2019-04-28T14:34:18.532Z,4204
2019-04-28T14:35:19.350Z,4204
2019-04-28T14:36:20.101Z,4204
2019-04-28T14:37:20.821Z,4204
2019-04-28T14:38:21.752Z,4204
2019-04-28T14:39:22.602Z,4204
2019-04-28T14:40:23.389Z,4204
2019-04-28T14:41:24.334Z,4204
2019-04-28T14:42:25.105Z,4204
2019-04-28T14:43:25.955Z,4204
2019-04-28T14:44:26.777Z,4204
2019-04-28T14:45:27.590Z,4204
2019-04-28T14:46:28.389Z,4204
2019-04-28T14:47:29.162Z,4204
2019-04-28T14:48:30.016Z,4204
2019-04-28T14:49:30.813Z,4204
2019-04-28T14:50:31.657Z,4204
2019-04-28T14:51:32.434Z,4204
2019-04-28T14:52:33.181Z,4204
2019-04-28T14:53:34.055Z,4204
2019-04-28T14:54:34.908Z,4204
2019-04-28T14:55:35.711Z,4204
2019-04-28T14:56:36.448Z,4204
2019-04-28T14:57:37.165Z,4204
2019-04-28T14:58:37.973Z,4204
2019-04-28T14:59:38.710Z,4204
2019-04-28T15:00:39.617Z,4204
2019-04-28T15:01:40.479Z,4204
2019-04-28T15:02:41.346Z,4204
2019-04-28T15:03:42.206Z,4204
2019-04-28T15:04:42.903Z,4204
2019-04-28T15:05:43.763Z,4204
2019-04-28T15:06:55.033Z,4204
2019-04-28T15:08:00.278Z,4204
2019-04-28T15:09:01.094Z,4204
2019-04-28T15:10:01.864Z,4204
2019-04-28T15:11:02.924Z,4204
2019-04-28T15:12:03.868Z,4204
2019-04-28T15:13:04.799Z,4204
2019-04-28T15:14:05.539Z,4204
2019-04-28T15:15:06.277Z,4204
2019-04-28T15:16:07.109Z,4204
2019-04-28T15:17:07.937Z,4204
2019-04-28T15:18:08.792Z,4204
2019-04-28T15:19:09.660Z,4204
2019-04-28T15:20:10.448Z,4204
2019-04-28T15:21:11.441Z,4204
2019-04-28T15:22:15.820Z,4204
2019-04-28T15:23:16.520Z,4204
2019-04-28T15:24:17.282Z,4204
2019-04-28T15:25:18.044Z,4204
2019-04-28T15:26:18.804Z,4204
2019-04-28T15:27:19.586Z,4204
2019-04-28T15:28:20.366Z,4204
2019-04-28T15:29:21.138Z,4204
2019-04-28T15:30:21.845Z,4204
2019-04-28T15:31:22.605Z,4224
2019-04-28T16:05:37.261Z,4084
2019-04-28T16:05:37.988Z,4084
2019-04-28T16:06:38.070Z,4084
2019-04-28T16:07:38.821Z,4084
2019-04-28T16:08:39.545Z,4084
2019-04-28T16:09:41.109Z,4084
2019-04-28T16:10:41.974Z,4084
2019-04-28T16:11:42.777Z,4084
2019-04-28T16:12:43.583Z,4084
2019-04-28T16:13:44.392Z,4084
2019-04-28T16:14:45.130Z,4064
2019-04-28T16:15:45.850Z,4064
2019-04-28T16:16:46.636Z,4064
2019-04-28T16:17:47.869Z,4064
2019-04-28T16:18:48.665Z,4064
2019-04-28T16:19:49.406Z,4064
2019-04-28T16:20:50.193Z,4044
2019-04-28T16:21:51.025Z,4064
2019-04-28T16:22:51.820Z,4064
2019-04-28T16:23:52.571Z,4064
2019-04-28T16:24:53.292Z,4064
2019-04-28T16:25:54.074Z,4064
2019-04-28T16:26:54.852Z,4064
2019-04-28T16:27:55.677Z,4064
2019-04-28T16:28:56.434Z,4064
2019-04-28T16:29:57.189Z,4064
2019-04-28T16:30:57.999Z,4064
2019-04-28T16:31:58.799Z,4064
2019-04-28T16:32:59.621Z,4064
2019-04-28T16:34:00.383Z,4064
2019-04-28T16:35:01.130Z,4064
2019-04-28T16:36:01.914Z,4064
2019-04-28T16:37:02.734Z,4064
2019-04-28T16:38:03.546Z,4064
2019-04-28T16:39:04.273Z,4064
2019-04-28T16:40:07.610Z,4064
2019-04-28T16:41:10.447Z,4064
2019-04-28T16:42:11.220Z,4064
2019-04-28T16:43:12.010Z,4064
2019-04-28T16:44:12.738Z,4064
2019-04-28T16:45:13.505Z,4064
2019-04-28T16:46:14.296Z,4064
2019-04-28T16:47:15.134Z,4064
2019-04-28T16:48:15.984Z,4064
2019-04-28T16:49:16.755Z,4064
2019-04-28T16:50:17.481Z,4064
2019-04-28T16:51:18.288Z,4044
2019-04-28T16:52:19.089Z,4044
2019-04-28T16:53:19.880Z,4044
2019-04-28T16:54:20.644Z,4044
2019-04-28T16:55:21.444Z,4044
2019-04-28T16:56:22.202Z,4044
2019-04-28T16:57:23.001Z,4044
2019-04-28T16:58:23.751Z,4044
2019-04-28T16:59:24.454Z,4044
2019-04-28T17:00:25.157Z,4044
2019-04-28T17:01:25.898Z,4044
2019-04-28T17:02:26.775Z,4044
2019-04-28T17:03:27.541Z,4044
2019-04-28T17:04:28.261Z,4044
2019-04-28T17:05:28.959Z,4044
2019-04-28T17:06:29.686Z,4044
2019-04-28T17:07:30.479Z,4044
2019-04-28T17:08:31.354Z,4044
2019-04-28T17:09:32.065Z,4044
2019-04-28T17:10:32.796Z,4044
2019-04-28T17:11:33.584Z,4044
2019-04-28T17:12:34.348Z,4044
2019-04-28T17:13:35.122Z,4044
2019-04-28T17:14:35.868Z,4044
2019-04-28T17:15:36.610Z,4044
2019-04-28T17:16:37.405Z,4044
2019-04-28T17:17:38.247Z,4044
2019-04-28T17:18:39.027Z,4044
2019-04-28T17:19:39.770Z,4044
2019-04-28T17:20:40.495Z,4044
2019-04-28T17:21:41.274Z,4044
2019-04-28T17:22:42.076Z,4044
2019-04-28T17:23:42.818Z,4044
2019-04-28T17:24:43.653Z,4044
2019-04-28T17:25:44.374Z,4044
2019-04-28T17:26:45.101Z,4044
2019-04-28T17:27:46.001Z,4044
2019-04-28T17:28:47.157Z,4044
2019-04-28T17:29:50.973Z,4044
2019-04-28T17:30:52.071Z,4044
2019-04-28T17:31:52.818Z,4044
2019-04-28T17:32:53.571Z,4044
2019-04-28T17:33:54.327Z,4044
2019-04-28T17:34:55.104Z,4044
2019-04-28T17:35:55.800Z,4044
2019-04-28T17:36:56.506Z,4044
2019-04-28T17:38:06.241Z,4044
2019-04-28T17:39:07.853Z,4044
2019-04-28T17:40:08.668Z,4044
2019-04-28T17:41:09.452Z,4044
2019-04-28T17:42:10.213Z,4044
2019-04-28T17:43:10.995Z,4044
2019-04-28T17:44:11.717Z,4044
2019-04-28T17:45:12.599Z,4044
2019-04-28T17:46:13.396Z,4044
2019-04-28T17:47:14.123Z,4044
2019-04-28T17:48:14.951Z,4044
2019-04-28T17:49:15.677Z,4044
2019-04-28T17:50:16.482Z,4044
2019-04-28T17:51:17.219Z,4044
2019-04-28T17:52:17.937Z,4044
2019-04-28T17:53:18.750Z,4044
2019-04-28T17:54:19.487Z,4044
2019-04-28T17:55:20.324Z,4044
2019-04-28T17:56:21.080Z,4044
2019-04-28T17:57:21.854Z,4044
2019-04-28T17:58:22.672Z,4044
2019-04-28T17:59:23.445Z,4044
2019-04-28T18:00:24.298Z,4044
2019-04-28T18:01:25.067Z,4044
2019-04-28T18:02:25.786Z,4044
2019-04-28T18:03:26.568Z,4044
2019-04-28T18:04:27.291Z,4044
2019-04-28T18:05:28.100Z,4024
2019-04-28T18:06:28.818Z,4044
2019-04-28T18:07:29.578Z,4044
2019-04-28T18:08:30.402Z,4024
2019-04-28T18:09:31.124Z,4044
2019-04-28T18:10:31.960Z,4024
2019-04-28T18:11:32.709Z,4024
2019-04-28T18:12:33.482Z,4024
2019-04-28T18:13:34.339Z,4024
2019-04-28T18:14:35.166Z,4024
2019-04-28T18:15:36.051Z,4024
2019-04-28T18:16:36.818Z,4024
2019-04-28T18:17:37.545Z,4024
2019-04-28T18:18:38.369Z,4024
2019-04-28T18:19:39.099Z,4024
2019-04-28T18:20:39.922Z,4024
2019-04-28T18:21:40.694Z,4024
2019-04-28T18:22:41.442Z,4024
2019-04-28T18:23:42.222Z,4024
2019-04-28T18:24:42.961Z,4024
2019-04-28T18:25:43.755Z,4024
2019-04-28T18:26:44.471Z,4024
2019-04-28T18:27:45.175Z,4024
2019-04-28T18:28:45.932Z,4024
2019-04-28T18:29:46.632Z,4024
2019-04-28T18:30:47.432Z,4024
2019-04-28T18:31:48.160Z,4024
2019-04-28T18:32:48.865Z,4024
2019-04-28T18:33:49.622Z,4024
2019-04-28T18:34:50.356Z,4024
2019-04-28T18:35:51.213Z,4024
2019-04-28T18:36:51.955Z,4024
2019-04-28T18:37:52.687Z,4024
2019-04-28T18:38:53.520Z,4024
2019-04-28T18:39:54.240Z,4024
2019-04-28T18:40:55.064Z,4024
2019-04-28T18:41:55.766Z,4024
2019-04-28T18:42:56.504Z,4024
2019-04-28T18:43:57.317Z,4024
2019-04-28T18:44:58.063Z,4024
2019-04-28T18:45:58.878Z,4024
2019-04-28T18:46:59.656Z,4024
2019-04-28T18:48:00.380Z,4024
2019-04-28T18:49:01.209Z,4024
2019-04-28T18:50:01.989Z,4024
2019-04-28T18:51:02.851Z,4024
2019-04-28T18:52:03.613Z,4024
2019-04-28T18:53:04.309Z,4024
2019-04-28T18:54:05.079Z,4024
2019-04-28T18:55:05.843Z,4024
2019-04-28T18:56:06.661Z,4024
2019-04-28T18:57:07.381Z,4024
2019-04-28T18:58:08.132Z,4024
2019-04-28T18:59:08.995Z,4024
2019-04-28T19:00:09.726Z,4024
2019-04-28T19:01:10.527Z,4024
2019-04-28T19:02:11.267Z,4024
2019-04-28T19:03:12.004Z,4024
2019-04-28T19:04:12.783Z,4024
2019-04-28T19:05:13.556Z,4024
2019-04-28T19:06:14.421Z,4024
2019-04-28T19:07:15.219Z,4024
2019-04-28T19:08:15.981Z,4024
2019-04-28T19:09:16.786Z,4024
2019-04-28T19:10:17.506Z,4024
2019-04-28T19:11:18.327Z,4024
2019-04-28T19:12:19.036Z,4024
2019-04-28T19:13:19.789Z,4024
2019-04-28T19:14:20.592Z,4024
2019-04-28T19:15:21.283Z,4024
2019-04-28T19:16:22.091Z,4024
2019-04-28T19:17:22.870Z,4024
2019-04-28T19:18:23.631Z,4024
2019-04-28T19:19:24.402Z,4024
2019-04-28T19:20:25.157Z,4024
2019-04-28T19:21:25.967Z,4024
2019-04-28T19:22:26.745Z,4024
2019-04-28T19:23:27.501Z,4024
2019-04-28T19:24:28.352Z,4024
2019-04-28T19:25:29.131Z,4024
2019-04-28T19:26:29.996Z,4024
2019-04-28T19:27:30.713Z,4024
2019-04-28T19:28:31.472Z,4024
2019-04-28T19:29:32.280Z,4024
2019-04-28T19:30:33.012Z,4024
2019-04-28T19:31:33.857Z,4024
2019-04-28T19:32:34.641Z,4024
2019-04-28T19:33:35.372Z,4024
2019-04-28T19:34:36.178Z,4024
2019-04-28T19:35:36.877Z,4024
2019-04-28T19:36:37.714Z,4024
2019-04-28T19:37:38.459Z,4024
2019-04-28T19:38:39.216Z,4024
2019-04-28T19:39:40.900Z,4024
2019-04-28T19:40:41.718Z,4024
2019-04-28T19:41:42.524Z,4024
2019-04-28T19:42:43.219Z,4024
2019-04-28T19:43:43.938Z,4024
2019-04-28T19:44:44.722Z,4024
2019-04-28T19:45:45.463Z,4024
2019-04-28T19:46:46.285Z,4024
2019-04-28T19:47:47.093Z,4024
2019-04-28T19:48:47.862Z,4024
2019-04-28T19:49:48.636Z,4024
2019-04-28T19:50:49.417Z,4024
2019-04-28T19:51:50.213Z,4024
2019-04-28T19:52:50.950Z,4024
2019-04-28T19:53:51.713Z,4024
2019-04-28T19:54:52.456Z,4024
2019-04-28T19:55:53.154Z,4024
2019-04-28T19:56:53.926Z,4024
2019-04-28T19:57:54.673Z,4024
2019-04-28T19:58:55.514Z,4024
2019-04-28T19:59:56.342Z,4024
2019-04-28T20:00:57.110Z,4024
2019-04-28T20:01:57.914Z,4024
2019-04-28T20:02:58.664Z,4024
2019-04-28T20:03:59.403Z,4024
2019-04-28T20:05:00.208Z,4024
2019-04-28T20:06:00.931Z,4024
2019-04-28T20:07:01.722Z,4024
2019-04-28T20:08:02.501Z,4024
2019-04-28T20:09:03.238Z,4004
2019-04-28T20:10:04.018Z,4004
2019-04-28T20:11:04.777Z,4004
2019-04-28T20:12:05.547Z,4004
2019-04-28T20:13:06.283Z,4004
2019-04-28T20:14:07.017Z,4004
2019-04-28T20:15:07.853Z,4004
2019-04-28T20:16:08.611Z,4004
2019-04-28T20:17:09.363Z,4004
2019-04-28T20:18:10.122Z,4004
2019-04-28T20:19:10.819Z,4004
2019-04-28T20:20:11.597Z,4004
2019-04-28T20:21:12.404Z,4004
2019-04-28T20:22:13.257Z,4004
2019-04-28T20:23:13.982Z,4004
2019-04-28T20:24:14.753Z,4004
2019-04-28T20:25:15.616Z,4004
2019-04-28T20:26:16.411Z,4004
2019-04-28T20:27:17.183Z,4004
2019-04-28T20:28:17.916Z,4004
2019-04-28T20:29:18.643Z,4004
2019-04-28T20:30:19.436Z,4004
2019-04-28T20:31:20.204Z,4004
2019-04-28T20:32:21.027Z,4004
2019-04-28T20:33:21.780Z,4004
2019-04-28T20:34:22.551Z,4004
2019-04-28T20:35:23.339Z,4004
2019-04-28T20:36:24.110Z,4004
2019-04-28T20:37:24.897Z,4004
2019-04-28T20:38:25.680Z,4004
2019-04-28T20:39:26.402Z,4004
2019-04-28T20:40:27.184Z,4004
2019-04-28T20:41:27.976Z,4004
2019-04-28T20:42:28.748Z,4004
2019-04-28T20:43:29.477Z,4004
2019-04-28T20:44:30.198Z,4004
2019-04-28T20:45:30.978Z,4004
2019-04-28T20:46:31.771Z,4004
2019-04-28T20:47:32.568Z,4004
2019-04-28T20:48:33.315Z,4004
2019-04-28T20:49:34.045Z,4004
2019-04-28T20:50:34.833Z,4004
2019-04-28T20:51:35.579Z,4004
2019-04-28T20:52:36.421Z,4004
2019-04-28T20:53:37.187Z,4004
2019-04-28T20:54:37.937Z,4004
2019-04-28T20:55:38.692Z,4004
2019-04-28T20:56:39.474Z,4004
2019-04-28T20:57:40.305Z,4004
2019-04-28T20:58:41.038Z,4004
2019-04-28T20:59:41.796Z,3984
2019-04-28T21:00:42.627Z,3984
2019-04-28T21:01:43.369Z,3984
2019-04-28T21:02:44.195Z,3984
2019-04-28T21:03:44.964Z,3984
2019-04-28T21:04:45.708Z,3984
2019-04-28T21:05:46.498Z,3984
2019-04-28T21:06:47.201Z,3984
2019-04-28T21:07:47.989Z,3984
2019-04-28T21:08:48.757Z,3984
2019-04-28T21:09:49.525Z,3984
2019-04-28T21:10:50.333Z,3984
2019-04-28T21:11:51.118Z,3984
2019-04-28T21:12:51.907Z,3984
2019-04-28T21:13:52.661Z,3984
2019-04-28T21:14:53.420Z,3984
2019-04-28T21:15:54.243Z,3984
2019-04-28T21:16:54.991Z,3984
2019-04-28T21:17:55.721Z,3984
2019-04-28T21:18:56.455Z,3984
2019-04-28T21:19:57.208Z,3984
2019-04-28T21:20:58.023Z,3984
2019-04-28T21:21:58.805Z,3984
2019-04-28T21:22:59.524Z,3984
2019-04-28T21:24:00.249Z,3984
2019-04-28T21:25:01.008Z,3984
2019-04-28T21:26:01.821Z,3984
2019-04-28T21:27:02.603Z,3984
2019-04-28T21:28:03.364Z,3984
2019-04-28T21:29:04.168Z,3984
2019-04-28T21:30:04.908Z,3984
2019-04-28T21:31:05.657Z,3964
2019-04-28T21:32:06.395Z,3964
2019-04-28T21:33:07.122Z,3964
2019-04-28T21:34:07.974Z,3964
2019-04-28T21:35:08.713Z,3964
2019-04-28T21:36:09.491Z,3964
2019-04-28T21:37:10.228Z,3964
2019-04-28T21:38:10.962Z,3964
2019-04-28T21:39:11.730Z,3964
2019-04-28T21:40:12.498Z,3964
2019-04-28T21:41:13.318Z,3964
2019-04-28T21:42:14.051Z,3964
2019-04-28T21:43:14.751Z,3964
2019-04-28T21:44:15.504Z,3964
2019-04-28T21:45:16.236Z,3964
2019-04-28T21:46:17.007Z,3964
2019-04-28T21:47:17.728Z,3964
2019-04-28T21:48:18.468Z,3964
2019-04-28T21:49:19.290Z,3964
2019-04-28T21:50:20.032Z,3964
2019-04-28T21:51:20.815Z,3964
2019-04-28T21:52:21.540Z,3964
2019-04-28T21:53:22.316Z,3964
2019-04-28T21:54:23.098Z,3964
2019-04-28T21:55:23.851Z,3964
2019-04-28T21:56:24.648Z,3964
2019-04-28T21:57:25.373Z,3964
2019-04-28T21:58:32.836Z,3964
2019-04-28T21:59:34.404Z,3964
2019-04-28T22:00:35.183Z,3964
2019-04-28T22:01:35.934Z,3944
2019-04-28T22:02:36.780Z,3944
2019-04-28T22:03:37.545Z,3944
2019-04-28T22:04:38.363Z,3944
2019-04-28T22:05:39.130Z,3944
2019-04-28T22:06:39.862Z,3944
2019-04-28T22:07:40.742Z,3944
2019-04-28T22:08:41.504Z,3944
2019-04-28T22:09:42.252Z,3944
2019-04-28T22:10:43.043Z,3944
2019-04-28T22:11:43.818Z,3944
2019-04-28T22:12:44.601Z,3944
2019-04-28T22:13:45.386Z,3944
2019-04-28T22:14:46.177Z,3944
2019-04-28T22:15:46.918Z,3944
2019-04-28T22:16:47.660Z,3944
2019-04-28T22:17:48.474Z,3944
2019-04-28T22:18:49.250Z,3944
2019-04-28T22:19:50.166Z,3944
2019-04-28T22:20:50.936Z,3944
2019-04-28T22:21:51.714Z,3944
2019-04-28T22:22:52.481Z,3944
2019-04-28T22:23:53.221Z,3944
2019-04-28T22:24:53.976Z,3944
2019-04-28T22:25:54.670Z,3944
2019-04-28T22:26:55.407Z,3944
2019-04-28T22:27:56.231Z,3924
2019-04-28T22:28:56.999Z,3944
2019-04-28T22:29:57.801Z,3924
2019-04-28T22:30:58.554Z,3924
2019-04-28T22:31:59.313Z,3924
2019-04-28T22:33:00.098Z,3924
2019-04-28T22:34:00.811Z,3924
2019-04-28T22:35:01.654Z,3924
2019-04-28T22:36:02.402Z,3924
2019-04-28T22:37:03.197Z,3924
2019-04-28T22:38:04.088Z,3924
2019-04-28T22:39:04.829Z,3924
2019-04-28T22:40:05.628Z,3924
2019-04-28T22:41:06.367Z,3924
2019-04-28T22:42:07.106Z,3924
2019-04-28T22:43:07.918Z,3924
2019-04-28T22:44:08.676Z,3924
2019-04-28T22:45:09.499Z,3924
2019-04-28T22:46:10.217Z,3924
2019-04-28T22:47:10.950Z,3924
2019-04-28T22:48:11.703Z,3924
2019-04-28T22:49:12.492Z,3924
2019-04-28T22:50:13.291Z,3924
2019-04-28T22:51:14.006Z,3924
2019-04-28T22:52:14.739Z,3924
2019-04-28T22:53:15.500Z,3924
2019-04-28T22:54:16.194Z,3924
2019-04-28T22:55:16.971Z,3924
2019-04-28T22:56:17.677Z,3924
2019-04-28T22:57:18.402Z,3904
2019-04-28T22:58:19.189Z,3924
2019-04-28T22:59:19.918Z,3924
2019-04-28T23:00:20.774Z,3904
2019-04-28T23:01:21.466Z,3904
2019-04-28T23:02:22.168Z,3904
2019-04-28T23:03:22.995Z,3904
2019-04-28T23:04:23.723Z,3904
2019-04-28T23:05:24.531Z,3904
2019-04-28T23:06:25.306Z,3904
2019-04-28T23:07:26.020Z,3904
2019-04-28T23:08:26.774Z,3904
2019-04-28T23:09:27.494Z,3904
2019-04-28T23:10:28.285Z,3904
2019-04-28T23:11:29.036Z,3904
2019-04-28T23:12:29.804Z,3904
2019-04-28T23:13:30.626Z,3904
2019-04-28T23:14:31.359Z,3904
2019-04-28T23:15:32.144Z,3904
2019-04-28T23:16:32.885Z,3904
2019-04-28T23:17:33.609Z,3904
2019-04-28T23:18:34.365Z,3904
2019-04-28T23:19:35.092Z,3904
2019-04-28T23:20:35.929Z,3904
2019-04-28T23:21:36.625Z,3904
2019-04-28T23:22:46.513Z,3904
2019-04-28T23:23:48.171Z,3904
2019-04-28T23:24:48.899Z,3904
2019-04-28T23:25:49.663Z,3904
2019-04-28T23:26:50.361Z,3904
2019-04-28T23:27:51.086Z,3904
2019-04-28T23:28:51.880Z,3904
2019-04-28T23:29:52.636Z,3904
2019-04-28T23:30:53.434Z,3884
2019-04-28T23:31:54.182Z,3884
2019-04-28T23:32:54.927Z,3884
2019-04-28T23:33:55.764Z,3884
2019-04-28T23:34:56.543Z,3884
2019-04-28T23:35:57.320Z,3884
2019-04-28T23:36:58.079Z,3884
2019-04-28T23:37:58.858Z,3884
2019-04-28T23:38:59.665Z,3884
2019-04-28T23:40:00.525Z,3884
2019-04-28T23:41:01.571Z,3884
2019-04-28T23:42:02.331Z,3884
2019-04-28T23:43:03.107Z,3884
2019-04-28T23:44:03.954Z,3884
2019-04-28T23:45:04.740Z,3884
2019-04-28T23:46:05.510Z,3884
2019-04-28T23:47:06.299Z,3884
2019-04-28T23:48:07.088Z,3884
2019-04-28T23:49:08.037Z,3884
2019-04-28T23:50:09.053Z,3884
2019-04-28T23:51:09.835Z,3884
2019-04-28T23:52:10.591Z,3884
2019-04-28T23:53:11.333Z,3884
2019-04-28T23:54:12.185Z,3884
2019-04-28T23:55:12.920Z,3884
2019-04-28T23:56:13.632Z,3884
2019-04-28T23:57:14.354Z,3884
2019-04-28T23:58:15.094Z,3884
2019-04-28T23:59:15.908Z,3884
